This is the latest recevied weather packets stored in our database for station/object KE0TNI-13. If no packets are shown the sender has not sent any weather packets the latest 10 day(s).
| Time | Temp. | Humidity | Pressure | Rain* | Wind** | Luminosity | Snow |
|---|---|---|---|---|---|---|---|
| 1777822577 | 10° C | 28% | 1022.7 hPa | 0 mm | - | 191 W/m² | - |
| 1777821669 | 9.44° C | 30% | 1022.7 hPa | 0 mm | - | 178 W/m² | - |
| 1777821367 | 9.44° C | 32% | 1023 hPa | 0 mm | - | 168 W/m² | - |
| 1777820456 | 8.89° C | 32% | 1023.3 hPa | 0 mm | - | 149 W/m² | - |
| 1777818639 | 8.33° C | 30% | 1023.2 hPa | 0 mm | - | 111 W/m² | - |
| 1777818032 | 8.33° C | 31% | 1023.5 hPa | 0 mm | - | 96 W/m² | - |
| 1777817427 | 7.78° C | 33% | 1023.6 hPa | 0 mm | - | 79 W/m² | - |
| 1777811368 | 7.22° C | 32% | 1022.7 hPa | 0 mm | - | 15 W/m² | - |
| 1777810460 | 7.22° C | 31% | 1022.6 hPa | 0 mm | - | 7 W/m² | - |
| 1777810156 | 6.67° C | 32% | 1022.6 hPa | 0 mm | - | 5 W/m² | - |
| 1777809853 | 6.67° C | 33% | 1022.7 hPa | 0 mm | - | 3 W/m² | - |
| 1777805920 | 6.11° C | 35% | 1022.4 hPa | 0 mm | - | 0 W/m² | - |
| 1777804710 | 1.11° C | 61% | 1022.4 hPa | 0 mm | - | 0 W/m² | - |
| 1777804105 | 1.11° C | 64% | 1022.6 hPa | 0 mm | - | 0 W/m² | - |
| 1777803497 | 1.11° C | 60% | 1022.7 hPa | 0 mm | - | 0 W/m² | - |
| 1777802892 | 1.11° C | 60% | 1022.7 hPa | 0 mm | - | 0 W/m² | - |
| 1777802590 | 1.11° C | 59% | 1022.7 hPa | 0 mm | - | 0 W/m² | - |
| 1777802287 | 1.11° C | 59% | 1022.7 hPa | 0 mm | - | 0 W/m² | - |
| 1777801986 | 1.11° C | 63% | 1023 hPa | 0 mm | - | 0 W/m² | - |
| 1777801682 | 1.11° C | 62% | 1022.7 hPa | 0 mm | - | 0 W/m² | - |
| 1777801075 | 1.11° C | 61% | 1022.8 hPa | 0 mm | - | 0 W/m² | - |
| 1777800773 | 1.11° C | 61% | 1022.7 hPa | 0 mm | - | 0 W/m² | - |
| 1777800468 | 1.11° C | 61% | 1022.8 hPa | 0 mm | - | 0 W/m² | - |
| 1777800165 | 1.11° C | 61% | 1022.8 hPa | 0 mm | - | 0 W/m² | - |
| 1777799865 | 1.67° C | 62% | 1023 hPa | 0 mm | - | 0 W/m² | - |
* Rain latest hour (hover to see other rain measurements)
** Current wind speed in m/s (hover to see current wind gust speed)